createdAt,value
2018-02-27T00:01:44.585Z,100124.19
2018-02-27T00:04:16.519Z,100116.48
2018-02-27T00:06:46.568Z,100114.23
2018-02-27T00:09:16.538Z,100114.33
2018-02-27T00:11:47.639Z,100118.39
2018-02-27T00:14:17.757Z,100121.46
2018-02-27T00:16:47.893Z,100124.36
2018-02-27T00:19:18.992Z,100123.78
2018-02-27T00:21:49.287Z,100115.69
2018-02-27T00:24:19.231Z,100116.23
2018-02-27T00:26:48.823Z,100128.25
2018-02-27T00:29:19.064Z,100127.20
2018-02-27T00:31:49.646Z,100136.31
2018-02-27T00:34:20.118Z,100131.10
2018-02-27T00:36:50.456Z,100131.30
2018-02-27T00:39:20.964Z,100129.72
2018-02-27T00:41:51.649Z,100135.78
2018-02-27T00:44:22.038Z,100119.75
2018-02-27T00:46:52.731Z,100129.41
2018-02-27T00:49:22.878Z,100126.48
2018-02-27T00:51:53.498Z,100134.84
2018-02-27T00:54:24.969Z,100103.98
2018-02-27T00:56:54.865Z,100121.73
2018-02-27T00:59:24.962Z,100118.30
2018-02-27T01:01:55.106Z,100117.77
2018-02-27T01:04:25.636Z,100121.80
2018-02-27T01:07:00.903Z,100107.20
2018-02-27T01:09:30.547Z,100081.26
2018-02-27T01:12:00.476Z,100111.72
2018-02-27T01:14:30.914Z,100105.23
2018-02-27T01:17:01.533Z,100066.66
2018-02-27T01:19:32.453Z,100086.01
2018-02-27T01:22:02.585Z,100096.32
2018-02-27T01:24:32.291Z,100092.98
2018-02-27T01:27:02.225Z,100100.80
2018-02-27T01:29:32.529Z,100097.33
2018-02-27T01:32:03.556Z,100058.89
2018-02-27T01:34:34.868Z,100096.77
2018-02-27T01:37:05.507Z,100078.05
2018-02-27T01:39:35.667Z,100085.00
2018-02-27T01:42:05.580Z,100098.43
2018-02-27T01:44:35.237Z,100074.23
2018-02-27T01:47:04.999Z,100086.67
2018-02-27T01:49:34.895Z,100086.06
2018-02-27T01:52:04.460Z,100083.03
2018-02-27T01:54:34.713Z,100084.50
2018-02-27T01:57:04.524Z,100087.86
2018-02-27T01:59:34.286Z,100086.62
2018-02-27T02:02:06.321Z,100080.02
2018-02-27T02:04:36.489Z,100078.79
2018-02-27T02:07:06.406Z,100074.84
2018-02-27T02:09:37.378Z,100078.66
2018-02-27T02:12:07.155Z,100082.19
2018-02-27T02:14:37.139Z,100077.81
2018-02-27T02:17:06.963Z,100075.62
2018-02-27T02:19:37.300Z,100061.58
2018-02-27T02:22:06.850Z,100075.10
2018-02-27T02:24:37.943Z,100060.72
2018-02-27T02:27:07.988Z,100074.15
2018-02-27T02:29:38.662Z,100068.34
2018-02-27T02:32:10.048Z,100059.11
2018-02-27T02:34:40.461Z,100068.11
2018-02-27T02:37:10.478Z,100075.25
2018-02-27T02:39:40.277Z,100070.03
2018-02-27T02:42:18.667Z,100065.80
2018-02-27T02:44:49.599Z,100073.12
2018-02-27T02:47:19.914Z,100074.70
2018-02-27T02:49:50.380Z,100073.16
2018-02-27T02:52:19.940Z,100068.17
2018-02-27T02:54:49.905Z,100077.67
2018-02-27T02:57:19.657Z,100068.95
2018-02-27T02:59:52.003Z,100072.90
2018-02-27T03:02:24.212Z,100073.01
2018-02-27T03:04:55.606Z,100070.11
2018-02-27T03:07:25.375Z,100078.84
2018-02-27T03:09:55.009Z,100055.72
2018-02-27T03:12:30.182Z,100074.64
2018-02-27T03:15:00.971Z,100069.36
2018-02-27T03:17:30.958Z,100039.27
2018-02-27T03:20:02.286Z,100003.33
2018-02-27T03:22:32.430Z,100049.47
2018-02-27T03:25:01.832Z,100061.53
2018-02-27T03:27:31.632Z,100059.83
2018-02-27T03:30:01.719Z,100051.81
2018-02-27T03:32:31.515Z,100059.42
2018-02-27T03:35:01.109Z,100061.78
2018-02-27T03:37:31.935Z,100065.38
2018-02-27T03:40:02.035Z,100064.17
2018-02-27T03:42:32.173Z,100063.28
2018-02-27T03:45:02.247Z,99995.00
2018-02-27T03:47:32.156Z,100060.80
2018-02-27T03:50:01.871Z,100017.64
2018-02-27T03:52:31.836Z,100059.88
2018-02-27T03:55:01.940Z,100037.55
2018-02-27T03:57:32.442Z,100046.39
2018-02-27T04:00:02.399Z,100045.16
2018-02-27T04:02:32.650Z,100045.05
2018-02-27T04:05:03.810Z,100044.89
2018-02-27T04:07:33.738Z,100042.48
2018-02-27T04:10:03.467Z,100038.23
2018-02-27T04:12:35.502Z,100044.34
2018-02-27T04:15:05.381Z,100028.05
2018-02-27T04:17:35.247Z,100045.58
2018-02-27T04:20:05.359Z,100038.84
2018-02-27T04:22:35.294Z,100040.77
2018-02-27T04:25:05.627Z,99968.20
2018-02-27T04:27:36.598Z,100037.44
2018-02-27T04:30:06.492Z,100034.01
2018-02-27T04:32:37.309Z,100030.03
2018-02-27T04:35:07.437Z,100029.55
2018-02-27T04:37:37.125Z,100030.28
2018-02-27T04:40:06.936Z,100008.69
2018-02-27T04:42:36.808Z,100023.81
2018-02-27T04:45:06.579Z,100030.95
2018-02-27T04:47:36.611Z,100027.34
2018-02-27T04:50:06.398Z,100028.09
2018-02-27T04:52:36.246Z,100027.34
2018-02-27T04:55:06.538Z,100029.66
2018-02-27T04:57:36.481Z,100038.39
2018-02-27T05:00:06.273Z,100020.64
2018-02-27T05:02:36.628Z,100039.95
2018-02-27T05:05:06.506Z,100025.22
2018-02-27T05:07:36.321Z,100028.99
2018-02-27T05:10:06.470Z,100032.41
2018-02-27T05:12:36.356Z,100034.04
2018-02-27T05:15:05.959Z,100029.76
2018-02-27T05:17:35.987Z,100020.98
2018-02-27T05:20:05.519Z,100026.59
2018-02-27T05:22:35.416Z,100021.58
2018-02-27T05:25:05.349Z,100013.20
2018-02-27T05:27:36.138Z,100019.67
2018-02-27T05:30:05.995Z,100015.36
2018-02-27T05:33:17.737Z,100017.55
2018-02-27T05:35:48.831Z,100010.45
2018-02-27T05:38:18.653Z,100007.09
2018-02-27T05:40:49.503Z,100013.05
2018-02-27T05:43:19.401Z,100012.20
2018-02-27T05:45:49.107Z,100011.97
2018-02-27T05:48:19.857Z,100011.75
2018-02-27T05:50:51.656Z,99993.98
2018-02-27T05:53:21.555Z,100020.84
2018-02-27T05:55:51.225Z,100020.81
2018-02-27T05:58:21.301Z,100016.92
2018-02-27T06:00:50.976Z,100020.53
2018-02-27T06:03:20.606Z,100019.80
2018-02-27T06:05:50.446Z,100017.55
2018-02-27T06:08:19.976Z,100020.34
2018-02-27T06:10:49.711Z,100004.36
2018-02-27T06:13:19.563Z,100023.73
2018-02-27T06:15:49.435Z,100028.11
2018-02-27T06:18:19.590Z,100026.97
2018-02-27T06:20:49.765Z,100028.59
2018-02-27T06:23:21.338Z,100022.15
2018-02-27T06:25:51.294Z,100031.06
2018-02-27T06:28:21.395Z,100031.41
2018-02-27T06:30:51.067Z,100030.87
2018-02-27T06:33:20.482Z,100035.34
2018-02-27T06:35:50.773Z,100034.59
2018-02-27T06:38:21.179Z,100028.58
2018-02-27T06:40:51.737Z,100034.11
2018-02-27T06:43:21.518Z,100028.11
2018-02-27T06:45:51.578Z,100029.23
2018-02-27T06:48:21.251Z,100032.56
2018-02-27T06:50:51.001Z,100024.65
2018-02-27T06:53:20.942Z,100027.25
2018-02-27T06:55:50.960Z,100024.31
2018-02-27T06:58:21.310Z,100021.94
2018-02-27T07:00:52.677Z,100021.71
2018-02-27T07:03:22.130Z,100020.23
2018-02-27T07:07:16.167Z,100019.48
2018-02-27T07:09:47.425Z,100026.03
2018-02-27T07:12:18.726Z,100015.43
2018-02-27T07:14:48.154Z,100023.54
2018-02-27T07:17:18.015Z,100030.70
2018-02-27T07:19:47.878Z,100023.09
2018-02-27T07:22:19.244Z,100027.89
2018-02-27T07:24:48.972Z,100020.81
2018-02-27T07:27:20.044Z,100008.00
2018-02-27T07:29:50.203Z,100016.27
2018-02-27T07:32:20.475Z,100019.91
2018-02-27T07:34:50.860Z,100021.33
2018-02-27T07:37:21.526Z,100017.38
2018-02-27T07:39:53.077Z,100021.91
2018-02-27T07:42:23.617Z,100004.72
2018-02-27T07:44:53.682Z,100016.41
2018-02-27T07:47:24.599Z,100022.14
2018-02-27T07:49:54.526Z,100005.20
2018-02-27T07:52:24.892Z,100008.48
2018-02-27T07:54:56.114Z,100013.36
2018-02-27T07:57:26.035Z,100000.83
2018-02-27T07:59:58.205Z,99983.98
2018-02-27T08:02:28.326Z,99990.23
2018-02-27T08:04:58.444Z,100001.05
2018-02-27T08:07:30.187Z,100001.95
2018-02-27T08:10:00.306Z,100004.72
2018-02-27T08:12:30.255Z,100002.13
2018-02-27T08:15:00.247Z,100004.56
2018-02-27T08:17:29.761Z,100003.13
2018-02-27T08:20:01.235Z,99997.66
2018-02-27T08:22:31.114Z,99994.42
2018-02-27T08:25:01.986Z,99973.94
2018-02-27T08:27:31.945Z,99979.13
2018-02-27T08:30:02.075Z,99980.45
2018-02-27T08:32:31.985Z,99980.68
2018-02-27T08:35:01.821Z,99956.97
2018-02-27T08:37:31.423Z,99979.63
2018-02-27T08:40:02.209Z,99924.64
2018-02-27T08:42:32.101Z,99971.94
2018-02-27T08:45:01.865Z,99947.84
2018-02-27T08:47:32.131Z,99968.73
2018-02-27T08:50:02.347Z,99965.69
2018-02-27T08:52:32.731Z,99975.22
2018-02-27T08:55:02.862Z,99970.72
2018-02-27T08:57:32.326Z,99960.72
2018-02-27T09:00:01.792Z,99960.35
2018-02-27T09:02:32.501Z,99955.96
2018-02-27T09:05:02.309Z,99961.44
2018-02-27T09:07:32.673Z,99957.13
2018-02-27T09:10:02.702Z,99957.58
2018-02-27T09:12:32.577Z,99940.20
2018-02-27T09:15:02.119Z,99948.55
2018-02-27T09:17:32.049Z,99944.44
2018-02-27T09:20:01.603Z,99944.38
2018-02-27T09:22:32.276Z,99944.48
2018-02-27T09:25:02.055Z,99937.94
2018-02-27T09:27:32.658Z,99927.43
2018-02-27T09:30:02.670Z,99927.94
2018-02-27T09:32:32.699Z,99921.86
2018-02-27T09:35:02.819Z,99923.84
2018-02-27T09:37:32.390Z,99921.60
2018-02-27T09:40:02.406Z,99926.85
2018-02-27T09:42:32.250Z,99923.38
2018-02-27T09:45:01.966Z,99892.02
2018-02-27T09:47:31.946Z,99921.97
2018-02-27T09:50:02.710Z,99862.40
2018-02-27T09:52:32.494Z,99912.77
2018-02-27T09:55:02.907Z,99856.50
2018-02-27T09:57:32.388Z,99919.00
2018-02-27T10:00:02.654Z,99915.88
2018-02-27T10:02:32.915Z,99924.70
2018-02-27T10:05:02.737Z,99916.58
2018-02-27T10:07:32.467Z,99908.96
2018-02-27T10:10:03.001Z,99913.56
2018-02-27T10:12:33.399Z,99916.22
2018-02-27T10:15:02.963Z,99904.82
2018-02-27T10:17:33.396Z,99904.77
2018-02-27T10:20:02.957Z,99898.69
2018-02-27T10:22:32.894Z,99899.69
2018-02-27T10:25:02.968Z,99885.80
2018-02-27T10:27:32.534Z,99905.28
2018-02-27T10:30:02.186Z,99900.30
2018-02-27T10:32:34.718Z,99890.48
2018-02-27T10:35:04.780Z,99889.73
2018-02-27T10:37:34.762Z,99901.02
2018-02-27T10:40:04.929Z,99885.22
2018-02-27T10:42:35.126Z,99879.98
2018-02-27T10:45:05.372Z,99886.37
2018-02-27T10:47:35.233Z,99887.40
2018-02-27T10:50:06.307Z,99890.69
2018-02-27T10:52:36.849Z,99879.50
2018-02-27T10:55:07.665Z,99872.48
2018-02-27T10:57:37.956Z,99869.30
2018-02-27T11:00:08.165Z,99854.47
2018-02-27T11:02:38.307Z,99876.38
2018-02-27T11:05:07.789Z,99872.13
2018-02-27T11:07:37.627Z,99867.59
2018-02-27T11:10:07.373Z,99861.98
2018-02-27T11:12:39.364Z,99873.05
2018-02-27T11:15:09.831Z,99858.09
2018-02-27T11:17:39.793Z,99862.90
2018-02-27T11:20:09.584Z,99850.73
2018-02-27T11:22:40.065Z,99849.59
2018-02-27T11:25:09.737Z,99850.02
2018-02-27T11:27:39.585Z,99839.64
2018-02-27T11:30:09.380Z,99839.78
2018-02-27T11:32:39.533Z,99842.30
2018-02-27T11:35:09.062Z,99837.59
2018-02-27T11:37:38.861Z,99838.91
2018-02-27T11:40:08.994Z,99843.09
2018-02-27T11:42:39.192Z,99828.88
2018-02-27T11:45:09.150Z,99814.46
2018-02-27T11:47:38.936Z,99827.50
2018-02-27T11:50:08.399Z,99825.92
2018-02-27T11:52:39.328Z,99819.48
2018-02-27T11:55:09.241Z,99819.86
2018-02-27T11:57:39.115Z,99813.62
2018-02-27T12:00:09.082Z,99820.02
2018-02-27T12:02:39.526Z,99806.73
2018-02-27T12:05:08.940Z,99796.71
2018-02-27T12:07:40.290Z,99792.42
2018-02-27T12:10:09.896Z,99788.81
2018-02-27T12:12:41.055Z,99778.69
2018-02-27T12:15:12.263Z,99801.09
2018-02-27T12:17:42.985Z,99793.80
2018-02-27T12:20:13.108Z,99793.51
2018-02-27T12:22:43.994Z,99798.10
2018-02-27T12:25:14.016Z,99762.64
2018-02-27T12:27:44.198Z,99786.93
2018-02-27T12:30:14.943Z,99786.88
2018-02-27T12:32:44.405Z,99786.19
2018-02-27T12:35:13.846Z,99773.00
2018-02-27T12:37:43.294Z,99771.45
2018-02-27T12:40:12.999Z,99782.81
2018-02-27T12:42:42.831Z,99779.78
2018-02-27T12:45:12.375Z,99772.81
2018-02-27T12:47:42.188Z,99777.84
2018-02-27T12:50:11.654Z,99775.30
2018-02-27T12:52:41.087Z,99779.76
2018-02-27T12:55:10.854Z,99775.45
2018-02-27T12:57:40.938Z,99738.66
2018-02-27T13:00:10.538Z,99773.05
2018-02-27T13:02:40.737Z,99764.89
2018-02-27T13:05:10.173Z,99773.91
2018-02-27T13:07:39.655Z,99764.77
2018-02-27T13:10:09.266Z,99753.21
2018-02-27T13:12:39.334Z,99757.20
2018-02-27T13:15:08.775Z,99760.17
2018-02-27T13:17:38.175Z,99746.86
2018-02-27T13:20:08.378Z,99743.75
2018-02-27T13:22:38.563Z,99752.34
2018-02-27T13:25:08.073Z,99744.70
2018-02-27T13:27:38.052Z,99747.55
2018-02-27T13:30:08.269Z,99743.06
2018-02-27T13:32:37.782Z,99728.83
2018-02-27T13:35:07.438Z,99734.69
2018-02-27T13:37:37.981Z,99729.80
2018-02-27T13:40:07.785Z,99733.98
2018-02-27T13:42:38.196Z,99729.31
2018-02-27T13:45:07.737Z,99736.22
2018-02-27T13:47:37.868Z,99735.75
2018-02-27T13:50:07.366Z,99728.08
2018-02-27T13:52:36.834Z,99736.94
2018-02-27T13:55:06.467Z,99722.62
2018-02-27T13:57:36.564Z,99729.44
2018-02-27T14:00:06.084Z,99721.95
2018-02-27T14:02:35.509Z,99718.63
2018-02-27T14:05:05.015Z,99723.96
2018-02-27T14:07:34.946Z,99709.33
2018-02-27T14:10:04.997Z,99725.23
2018-02-27T14:12:34.852Z,99719.87
2018-02-27T14:15:04.700Z,99726.77
2018-02-27T14:17:34.470Z,99718.85
2018-02-27T14:20:04.074Z,99715.66
2018-02-27T14:22:33.561Z,99720.69
2018-02-27T14:25:04.990Z,99712.03
2018-02-27T14:27:34.872Z,99719.53
2018-02-27T14:30:04.720Z,99712.77
2018-02-27T14:32:34.215Z,99713.23
2018-02-27T14:35:03.713Z,99709.66
2018-02-27T14:37:33.194Z,99718.37
2018-02-27T14:40:02.658Z,99708.23
2018-02-27T14:42:32.386Z,99714.05
2018-02-27T14:45:01.808Z,99720.16
2018-02-27T14:47:31.811Z,99711.08
2018-02-27T14:50:01.836Z,99702.10
2018-02-27T14:52:32.271Z,99713.34
2018-02-27T14:55:01.773Z,99711.50
2018-02-27T14:57:31.487Z,99714.22
2018-02-27T15:00:01.098Z,99712.66
2018-02-27T15:02:30.981Z,99712.17
2018-02-27T15:05:00.577Z,99706.98
2018-02-27T15:07:30.050Z,99709.84
2018-02-27T15:09:59.497Z,99709.75
2018-02-27T15:12:29.834Z,99707.58
2018-02-27T15:14:59.779Z,99714.06
2018-02-27T15:17:30.782Z,99708.44
2018-02-27T15:20:01.245Z,99720.13
2018-02-27T15:22:31.209Z,99707.97
2018-02-27T15:25:00.638Z,99714.33
2018-02-27T15:27:32.227Z,99707.02
2018-02-27T15:30:02.859Z,99699.61
2018-02-27T15:32:32.912Z,99709.88
2018-02-27T15:35:02.522Z,99705.33
2018-02-27T15:37:33.054Z,99678.58
2018-02-27T15:40:03.278Z,99708.23
2018-02-27T15:42:32.771Z,99710.37
2018-02-27T15:45:02.274Z,99702.81
2018-02-27T15:47:32.097Z,99716.72
2018-02-27T15:50:02.368Z,99716.35
2018-02-27T15:52:31.840Z,99704.97
2018-02-27T15:55:01.772Z,99708.10
2018-02-27T15:57:32.108Z,99686.42
2018-02-27T16:00:01.620Z,99712.40
2018-02-27T16:02:31.371Z,99705.95
2018-02-27T16:05:00.924Z,99713.53
2018-02-27T16:07:30.486Z,99714.62
2018-02-27T16:10:00.275Z,99709.78
2018-02-27T16:12:29.730Z,99716.34
2018-02-27T16:14:59.289Z,99712.23
2018-02-27T16:17:29.025Z,99716.28
2018-02-27T16:19:58.441Z,99711.87
2018-02-27T16:22:28.141Z,99714.34
2018-02-27T16:24:57.914Z,99715.39
2018-02-27T16:27:27.969Z,99713.27
2018-02-27T16:29:57.422Z,99714.19
2018-02-27T16:32:27.652Z,99697.42
2018-02-27T16:34:57.062Z,99712.76
2018-02-27T16:37:27.420Z,99721.48
2018-02-27T16:39:57.232Z,99713.32
2018-02-27T16:42:27.418Z,99716.91
2018-02-27T16:44:56.852Z,99720.61
2018-02-27T16:47:26.621Z,99737.27
2018-02-27T16:49:56.032Z,99714.56
2018-02-27T16:52:25.600Z,99716.27
2018-02-27T16:54:55.455Z,99727.56
2018-02-27T16:57:25.177Z,99727.55
2018-02-27T16:59:56.099Z,99724.02
2018-02-27T17:02:26.258Z,99733.34
2018-02-27T17:04:55.737Z,99736.31
2018-02-27T17:07:25.786Z,99739.40
2018-02-27T17:09:55.638Z,99747.44
2018-02-27T17:12:25.423Z,99727.63
2018-02-27T17:14:55.221Z,99749.08
2018-02-27T17:17:25.005Z,99754.20
2018-02-27T17:19:55.053Z,99758.61
2018-02-27T17:22:24.549Z,99762.50
2018-02-27T17:24:54.617Z,99759.69
2018-02-27T17:27:24.604Z,99758.55
2018-02-27T17:29:55.055Z,99758.40
2018-02-27T17:32:26.026Z,99756.47
2018-02-27T17:34:55.541Z,99751.68
2018-02-27T17:37:25.126Z,99759.00
2018-02-27T17:39:54.808Z,99753.78
2018-02-27T17:42:24.269Z,99761.29
2018-02-27T17:44:53.769Z,99759.66
2018-02-27T17:47:23.658Z,99761.69
2018-02-27T17:49:53.240Z,99729.54
2018-02-27T17:52:22.965Z,99767.22
2018-02-27T17:54:52.950Z,99762.43
2018-02-27T17:57:23.344Z,99761.72
2018-02-27T17:59:52.761Z,99763.05
2018-02-27T18:03:46.936Z,99768.12
2018-02-27T18:06:16.901Z,99763.14
2018-02-27T18:08:47.208Z,99763.58
2018-02-27T18:11:17.455Z,99764.54
2018-02-27T18:13:47.241Z,99769.92
2018-02-27T18:16:17.250Z,99763.88
2018-02-27T18:18:46.889Z,99768.97
2018-02-27T18:21:16.705Z,99763.14
2018-02-27T18:23:46.616Z,99765.56
2018-02-27T18:26:16.578Z,99771.76
2018-02-27T18:28:46.569Z,99767.53
2018-02-27T18:31:16.064Z,99770.06
2018-02-27T18:33:46.509Z,99768.61
2018-02-27T18:36:15.982Z,99752.33
2018-02-27T18:38:46.347Z,99774.41
2018-02-27T18:41:15.994Z,99770.55
2018-02-27T18:43:45.488Z,99773.92
2018-02-27T18:46:15.306Z,99774.30
2018-02-27T18:48:45.102Z,99719.49
2018-02-27T18:51:14.593Z,99756.44
2018-02-27T18:53:44.547Z,99771.27
2018-02-27T18:56:14.200Z,99774.71
2018-02-27T18:58:44.070Z,99773.07
2018-02-27T19:01:14.351Z,99708.72
2018-02-27T19:03:44.818Z,99780.70
2018-02-27T19:06:14.306Z,99783.42
2018-02-27T19:08:44.107Z,99788.12
2018-02-27T19:11:13.823Z,99787.56
2018-02-27T19:13:43.327Z,99780.94
2018-02-27T19:16:13.627Z,99724.28
2018-02-27T19:18:43.095Z,99797.41
2018-02-27T19:21:12.785Z,99798.78
2018-02-27T19:23:42.833Z,99804.63
2018-02-27T19:26:12.505Z,99802.61
2018-02-27T19:28:42.063Z,99808.13
2018-02-27T19:31:12.589Z,99815.30
2018-02-27T19:33:42.059Z,99813.45
2018-02-27T19:36:12.473Z,99811.77
2018-02-27T19:38:42.643Z,99819.50
2018-02-27T19:41:12.134Z,99820.78
2018-02-27T19:43:41.779Z,99825.22
2018-02-27T19:46:12.920Z,99822.92
2018-02-27T19:48:42.936Z,99824.08
2018-02-27T19:51:13.357Z,99821.59
2018-02-27T19:53:43.253Z,99833.64
2018-02-27T19:56:12.835Z,99831.74
2018-02-27T19:58:42.360Z,99827.81
2018-02-27T20:01:12.496Z,99824.16
2018-02-27T20:03:41.960Z,99829.14
2018-02-27T20:06:11.482Z,99834.92
2018-02-27T20:08:42.304Z,99835.42
2018-02-27T20:11:11.879Z,99834.97
2018-02-27T20:13:41.884Z,99836.38
2018-02-27T20:16:11.890Z,99836.52
2018-02-27T20:18:42.092Z,99836.91
2018-02-27T20:21:11.515Z,99822.69
2018-02-27T20:23:46.198Z,99833.28
2018-02-27T20:26:16.197Z,99839.61
2018-02-27T20:28:49.659Z,99839.56
2018-02-27T20:31:19.529Z,99842.43
2018-02-27T20:33:49.117Z,99835.78
2018-02-27T20:36:18.528Z,99844.66
2018-02-27T20:38:52.755Z,99830.60
2018-02-27T20:41:22.438Z,99847.59
2018-02-27T20:43:51.965Z,99840.80
2018-02-27T20:46:21.754Z,99845.34
2018-02-27T20:48:51.400Z,99846.77
2018-02-27T20:51:20.850Z,99848.59
2018-02-27T20:53:51.153Z,99838.61
2018-02-27T20:56:20.696Z,99849.56
2018-02-27T20:58:50.617Z,99848.17
2018-02-27T21:01:20.534Z,99861.22
2018-02-27T21:03:49.991Z,99850.92
2018-02-27T21:06:20.231Z,99854.09
2018-02-27T21:08:50.017Z,99850.63
2018-02-27T21:11:19.461Z,99848.87
2018-02-27T21:13:48.961Z,99847.59
2018-02-27T21:16:19.025Z,99861.78
2018-02-27T21:18:48.868Z,99861.73
2018-02-27T21:21:18.705Z,99861.07
2018-02-27T21:23:48.535Z,99869.08
2018-02-27T21:26:18.931Z,99863.69
2018-02-27T21:28:49.277Z,99843.40
2018-02-27T21:31:19.858Z,99872.71
2018-02-27T21:33:49.374Z,99868.91
2018-02-27T21:36:18.929Z,99848.67
2018-02-27T21:38:49.421Z,99841.23
2018-02-27T21:41:19.134Z,99869.41
2018-02-27T21:43:49.187Z,99883.22
2018-02-27T21:46:19.760Z,99875.56
2018-02-27T21:48:49.303Z,99870.19
2018-02-27T21:51:19.323Z,99871.69
2018-02-27T21:53:49.488Z,99877.59
2018-02-27T21:56:18.895Z,99876.95
2018-02-27T21:58:50.279Z,99865.65
2018-02-27T22:01:20.592Z,99886.78
2018-02-27T22:03:50.091Z,99895.37
2018-02-27T22:06:20.899Z,99881.94
2018-02-27T22:08:51.168Z,99889.52
2018-02-27T22:11:20.902Z,99895.27
2018-02-27T22:13:51.067Z,99898.36
2018-02-27T22:16:21.120Z,99899.89
2018-02-27T22:18:50.951Z,99887.66
2018-02-27T22:21:20.390Z,99903.84
2018-02-27T22:23:50.666Z,99905.86
2018-02-27T22:26:20.592Z,99906.66
2018-02-27T22:28:50.720Z,99912.09
2018-02-27T22:31:21.307Z,99909.91
2018-02-27T22:33:51.513Z,99908.42
2018-02-27T22:36:20.942Z,99919.33
2018-02-27T22:38:50.814Z,99920.08
2018-02-27T22:41:20.550Z,99918.48
2018-02-27T22:43:49.956Z,99922.05
2018-02-27T22:46:19.711Z,99919.22
2018-02-27T22:48:50.216Z,99921.81
2018-02-27T22:51:20.398Z,99916.67
2018-02-27T22:53:50.364Z,99910.34
2018-02-27T22:56:20.017Z,99919.95
2018-02-27T22:58:49.636Z,99918.84
2018-02-27T23:01:19.443Z,99919.99
2018-02-27T23:03:49.343Z,99914.41
2018-02-27T23:06:19.613Z,99926.16
2018-02-27T23:08:49.769Z,99925.91
2018-02-27T23:11:20.420Z,99922.88
2018-02-27T23:13:49.910Z,99926.73
2018-02-27T23:16:20.887Z,99927.60
2018-02-27T23:18:50.828Z,99933.52
2018-02-27T23:21:20.320Z,99934.59
2018-02-27T23:24:00.584Z,99930.14
2018-02-27T23:26:50.666Z,99928.69
2018-02-27T23:29:25.561Z,99929.64
2018-02-27T23:31:59.623Z,99920.14
2018-02-27T23:34:56.765Z,99933.89
2018-02-27T23:37:27.188Z,99918.41
2018-02-27T23:39:57.609Z,99939.84
2018-02-27T23:42:27.360Z,99940.98
2018-02-27T23:44:56.904Z,99940.45
2018-02-27T23:47:27.002Z,99935.44
2018-02-27T23:49:56.822Z,99943.13
2018-02-27T23:52:26.922Z,99938.89
2018-02-27T23:54:57.616Z,99941.44
2018-02-27T23:57:28.598Z,99939.61
2018-02-27T23:59:58.458Z,99956.67
